Akhiok, AK

7:42 PM AKDT on July 22, 2014 (GMT -0800)
RAWS CAPE KIAVAK AK US (MCKLA2) Elev 100 ft | 57.00 °N, 153.54 °W | Change Station

Current weather conditions updated 47 minutes ago

Overcast
Overcast
54 °F
Feels Like 54 °F
N
19
Wind Variable Wind from SW
Gusts 0.0 mph

Tomorrow is forecast to be nearly the same temperature as today. A few morning showers.

Today
High -- | Low -- °F
--% Chance of Precip.
Yesterday
High -- | Low -- °F
Precip. -- in
5:57 AM 10:47 PM
Waning Crescent, 13% visible
Pressure 29.90 in
Visibility 10.0 miles
Clouds Overcast 2500 ft
Dew Point 5 °F
Humidity 14%
Rainfall 0.00 in
Snow Depth Not available.
UV 1 out of 12
Pollen Not available.
Air Quality Not available.
Flu Activity Not available.
METAR PADQ 230253Z 00000KT 10SM OVC025 16/11 A2989 RMK AO2 SLP123 T01560106

More Conditions Fewer Conditions

Pressure 29.90 in
Visibility 10.0 miles
Clouds Overcast 2500 ft
Dew Point 5 °F
Humidity 14%
Rainfall 0.00 in
Snow Depth Not available.
UV 1 out of 12
Pollen Not available.
Air Quality Not available.
Flu Activity Not available.
METAR PADQ 230253Z 00000KT 10SM OVC025 16/11 A2989 RMK AO2 SLP123 T01560106

More Conditions Fewer Conditions

10-Day Weather Forecast

Almanac

Astronomy

Jul. 22, 2014 Rise Set
Actual Time 5:57 AM AKDT 10:47 PM AKDT
Civil Twilight 5:01 AM AKDT 11:42 PM AKDT
Nautical Twilight 3:16 AM AKDT 1:23 AM AKDT
Astronomical Twilight Sun does not rise Sun does not rise
Moon 2:48 AM AKDT (7/22) 7:28 PM AKDT (7/22)
Length of Visible Light 18h 41m
Length of Day
16h 50m
Tomorrow will be 3m 34s shorter.
Waning Crescent, 13% of the Moon is Illuminated
Today
Waning Crescent
Jul 26
New
Aug 3
First Quarter
Aug 10
Full
Aug 17
Last Quarter

Today's Extremes

State Highs State Lows

Community

WunderPhotos

Upload Photos

1,736,488 photos uploaded!

Nearby

Snow Depth

Station Depth Elevation
Port Graham 0 in 300 ft
Nuka Glacier 150 in 1250 ft
Mcneil Canyon 1 in 1320 ft
MF Bradley River 27 in 2300 ft
Cooper Lake 9 in 1200 ft

Earthquake Activity

City Distance Mag. Time & Date
No recent earthquake activity has been reported nearby.
Minimum magnitude displayed is 2.5.

Coastal Water Temperatures

Place Temperature
No Stations Reporting

Nearby Weather Stations

Station Location Temp. Dew Point Humidity Wind Precip. Elev Updated Type
RAWS CAPE KIAVAK AK, Kodiak, AK 54 °F 5 °F 14% SW  at  19 mph 0.00 in / hr 100 ft 6:55 PM AKDT MADIS

Show More Stations Show Fewer Stations